Time;durP1;ratioP1;P1;durP2;ratioP2;P2;SDS_P1;SDS_P2;PMS_P1;PMS_P2;Temp;Humidity;BMP_temperature;BMP_pressure;BME280_temperature;BME280_humidity;BME280_pressure;Samples;Min_cycle;Max_cycle;Signal;HPM_P1;HPM_P2
2023/11/28 00:02:11;;;;;;;8.55;6.60;;;;;;;-146.27;84.17;33985.88;5101676;28;20027;-69
2023/11/28 00:04:40;;;;;;;8.52;6.70;;;;;;;-146.27;84.23;33975.94;5086859;28;20344;-69
2023/11/28 00:07:05;;;;;;;10.40;7.80;;;;;;;-146.27;84.04;33993.81;5098118;28;20020;-68
2023/11/28 00:09:30;;;;;;;11.10;7.75;;;;;;;-146.27;83.85;33936.25;5076394;28;20528;-68
2023/11/28 00:11:56;;;;;;;11.85;9.05;;;;;;;-146.27;83.90;33964.03;5103139;28;20067;-68
2023/11/28 00:14:22;;;;;;;10.48;7.93;;;;;;;-146.27;84.37;33973.97;5105363;28;20028;-69
2023/11/28 00:16:47;;;;;;;10.52;8.05;;;;;;;-146.27;84.23;33997.78;5098149;28;20042;-68
2023/11/28 00:19:12;;;;;;;11.60;8.48;;;;;;;-146.27;84.16;33958.09;5111086;28;20519;-68
2023/11/28 00:21:38;;;;;;;9.88;7.13;;;;;;;-146.27;84.38;34001.75;5106602;28;20030;-69
2023/11/28 00:24:03;;;;;;;9.90;7.65;;;;;;;-146.27;83.82;33985.88;5098888;28;20028;-68
2023/11/28 00:26:28;;;;;;;10.63;8.48;;;;;;;-146.27;84.70;34023.59;5110901;28;20023;-69
2023/11/28 00:28:54;;;;;;;8.45;6.45;;;;;;;-146.27;84.09;33950.16;5097373;28;20411;-68
2023/11/28 00:31:20;;;;;;;7.88;6.25;;;;;;;-146.27;83.96;34045.41;5096373;28;20067;-69
2023/11/28 00:33:46;;;;;;;6.68;5.40;;;;;;;-146.27;83.83;34057.31;5099061;28;20031;-68
2023/11/28 00:36:15;;;;;;;6.55;5.38;;;;;;;-146.27;83.79;34001.75;5108605;28;20027;-69
2023/11/28 00:38:40;;;;;;;8.13;5.85;;;;;;;-146.27;83.37;34033.50;5098294;28;20054;-68
2023/11/28 00:41:06;;;;;;;6.47;5.70;;;;;;;-146.27;83.09;33989.84;5093839;28;20436;-68
2023/11/28 00:43:32;;;;;;;6.85;5.68;;;;;;;-146.27;83.41;34035.50;5092052;28;20062;-68
2023/11/28 00:45:58;;;;;;;7.45;5.78;;;;;;;-146.27;82.90;34039.47;5109421;28;20084;-69
2023/11/28 00:48:23;;;;;;;7.60;5.72;;;;;;;-146.27;83.10;34025.56;5108334;28;20036;-68
2023/11/28 00:50:50;;;;;;;7.35;5.45;;;;;;;-146.27;82.44;34015.66;5103362;28;20020;-69
2023/11/28 00:53:15;;;;;;;7.60;5.45;;;;;;;-146.27;82.68;33999.75;5106828;28;20352;-69
2023/11/28 00:55:40;;;;;;;6.57;5.43;;;;;;;-146.27;82.50;33997.78;5109817;28;20028;-70
2023/11/28 00:58:06;;;;;;;7.43;5.95;;;;;;;-146.27;82.66;34037.47;5103630;28;20035;-67
2023/11/28 01:00:31;;;;;;;7.32;4.97;;;;;;;-146.27;82.82;34027.56;5094102;28;20028;-68
2023/11/28 01:02:59;;;;;;;7.05;5.20;;;;;;;-146.27;82.47;34025.56;5074491;28;20518;-68
2023/11/28 01:05:25;;;;;;;9.45;6.07;;;;;;;-146.27;83.08;34057.31;5101998;28;20020;-69
2023/11/28 01:07:50;;;;;;;8.40;5.75;;;;;;;-146.27;83.15;34021.59;5099821;28;20031;-68
2023/11/28 01:10:16;;;;;;;6.13;5.18;;;;;;;-146.27;83.17;34033.50;5103455;28;20023;-68
2023/11/28 01:12:42;;;;;;;7.72;5.75;;;;;;;-146.27;83.31;34069.22;5100188;28;20111;-68
2023/11/28 01:15:08;;;;;;;9.23;6.43;;;;;;;-146.27;83.33;34009.69;5090565;28;20026;-68
2023/11/28 01:17:33;;;;;;;9.73;6.95;;;;;;;-146.27;83.08;34001.75;5102714;28;20022;-69
2023/11/28 01:19:59;;;;;;;9.65;7.40;;;;;;;-146.27;83.44;33964.03;5106960;28;20047;-68
2023/11/28 01:22:24;;;;;;;10.25;7.72;;;;;;;-146.27;83.47;33968.00;5101082;28;20028;-69
2023/11/28 01:24:50;;;;;;;11.45;8.10;;;;;;;-146.27;83.87;34009.69;5092987;28;20027;-69
2023/11/28 01:27:15;;;;;;;9.80;7.22;;;;;;;-146.27;84.23;34061.28;5101749;28;20615;-68
2023/11/28 01:29:41;;;;;;;9.55;7.22;;;;;;;-146.27;84.08;34061.28;5108725;28;20024;-68
2023/11/28 01:32:06;;;;;;;9.77;6.53;;;;;;;-146.27;84.40;34029.53;5105304;28;20047;-70
2023/11/28 01:34:32;;;;;;;10.25;6.43;;;;;;;-146.27;84.32;34043.44;5102772;28;20035;-69
2023/11/28 01:36:57;;;;;;;8.82;6.18;;;;;;;-146.27;83.78;34007.69;5102133;28;20024;-68
2023/11/28 01:39:22;;;;;;;7.65;5.95;;;;;;;-146.27;84.45;34081.13;5096973;28;20100;-68
2023/11/28 01:41:48;;;;;;;7.45;5.45;;;;;;;-146.27;84.38;34061.28;5094732;28;20034;-69
2023/11/28 01:44:15;;;;;;;7.70;5.20;;;;;;;-146.27;84.28;34041.44;5092115;28;20019;-69
2023/11/28 01:46:41;;;;;;;7.25;5.07;;;;;;;-146.27;84.07;34045.41;5094780;28;20422;-69
2023/11/28 01:49:07;;;;;;;6.40;5.05;;;;;;;-146.27;83.75;34057.31;5095526;28;20024;-68
2023/11/28 01:51:36;;;;;;;13.32;5.07;;;;;;;-146.27;84.07;34045.41;5094879;28;20035;-69
2023/11/28 01:54:04;;;;;;;7.65;4.93;;;;;;;-146.27;83.85;34047.41;5099717;28;20116;-68
2023/11/28 01:56:31;;;;;;;7.35;4.75;;;;;;;-146.27;83.61;34017.63;5094594;28;20020;-68
2023/11/28 01:58:59;;;;;;;9.55;5.07;;;;;;;-146.27;83.71;34083.13;5095378;28;20030;-68
2023/11/28 02:01:25;;;;;;;6.70;4.95;;;;;;;-146.27;83.33;34039.47;5096597;28;20049;-68
2023/11/28 02:03:51;;;;;;;7.05;5.00;;;;;;;-146.27;83.82;34085.09;5093033;28;20107;-68
2023/11/28 02:06:17;;;;;;;8.52;5.57;;;;;;;-146.27;83.88;34065.25;5101872;28;20491;-70
2023/11/28 02:08:43;;;;;;;8.27;4.88;;;;;;;-146.27;83.83;34069.22;5095148;28;20134;-68
2023/11/28 02:11:09;;;;;;;7.53;5.25;;;;;;;-146.27;83.71;34089.06;5105268;28;20031;-68
2023/11/28 02:13:35;;;;;;;8.32;5.20;;;;;;;-146.27;83.90;34075.19;5092866;28;20468;-67
2023/11/28 02:16:12;;;;;;;7.63;5.05;;;;;;;-146.27;83.34;34120.81;5103044;28;20430;-68
2023/11/28 02:18:38;;;;;;;8.02;4.70;;;;;;;-146.27;83.56;34071.22;5091897;28;20545;-68
2023/11/28 02:21:04;;;;;;;8.23;4.75;;;;;;;-146.27;83.23;34104.94;5092487;28;20539;-68
2023/11/28 02:23:30;;;;;;;8.65;4.60;;;;;;;-146.27;83.55;34099.00;5098325;28;20031;-68
2023/11/28 02:25:59;;;;;;;8.73;4.53;;;;;;;-146.27;82.84;34100.97;5095870;28;20118;-68
2023/11/28 02:28:25;;;;;;;8.55;4.35;;;;;;;-146.27;82.49;34085.09;5098543;28;20070;-68
2023/11/28 02:30:56;;;;;;;9.23;4.80;;;;;;;-146.27;82.56;34091.06;5096038;28;20440;-68
2023/11/28 02:33:22;;;;;;;7.85;3.75;;;;;;;-146.27;82.33;34116.84;5091651;28;20032;-69
2023/11/28 02:35:47;;;;;;;6.85;4.65;;;;;;;-146.27;81.88;34039.47;5095732;28;20024;-68
2023/11/28 02:38:13;;;;;;;9.35;4.25;;;;;;;-146.27;81.99;34106.94;5094203;28;20031;-68
2023/11/28 02:40:39;;;;;;;5.88;3.95;;;;;;;-146.27;81.92;34180.34;5095567;28;20435;-69
2023/11/28 02:43:04;;;;;;;6.13;4.20;;;;;;;-146.27;81.80;34168.44;5099273;28;20672;-68
2023/11/28 02:45:30;;;;;;;7.15;3.53;;;;;;;-146.27;81.57;34075.19;5098737;28;20371;-68
2023/11/28 02:47:55;;;;;;;7.35;3.80;;;;;;;-146.27;81.06;34114.88;5093989;28;20422;-68
2023/11/28 02:50:20;;;;;;;5.97;3.45;;;;;;;-146.27;80.65;34104.94;5098218;28;20024;-70
2023/11/28 02:52:46;;;;;;;4.90;3.05;;;;;;;-146.27;80.73;34118.84;5092889;28;20055;-68
2023/11/28 02:55:11;;;;;;;7.53;3.55;;;;;;;-146.27;80.40;34132.72;5094084;28;20306;-68
2023/11/28 02:57:37;;;;;;;9.68;4.10;;;;;;;-146.27;80.85;34132.72;5098832;28;20458;-68
2023/11/28 03:00:04;;;;;;;5.68;3.65;;;;;;;-146.27;80.53;34142.66;5093195;28;20031;-69
2023/11/28 03:02:30;;;;;;;8.45;3.10;;;;;;;-146.27;80.02;34124.78;5104044;28;20050;-68
2023/11/28 03:04:56;;;;;;;4.05;2.80;;;;;;;-146.27;79.96;34154.56;5108828;28;20031;-68
2023/11/28 03:07:21;;;;;;;3.88;2.40;;;;;;;-146.27;79.75;34142.66;5104066;28;20433;-69
2023/11/28 03:09:46;;;;;;;6.57;2.80;;;;;;;-146.27;79.56;34164.47;5107021;28;20468;-70
2023/11/28 03:12:12;;;;;;;4.78;2.53;;;;;;;-146.27;79.61;34188.28;5106554;28;20024;-70
2023/11/28 03:14:37;;;;;;;4.38;2.10;;;;;;;-146.27;79.47;34192.25;5101183;28;20031;-69
2023/11/28 03:17:02;;;;;;;4.82;1.85;;;;;;;-146.27;79.81;34204.16;5087939;28;20034;-68
2023/11/28 03:19:28;;;;;;;3.20;2.17;;;;;;;-146.27;79.16;34224.03;5095092;28;20047;-69
2023/11/28 03:21:54;;;;;;;4.35;1.90;;;;;;;-146.27;79.79;34253.78;5101102;28;20434;-69
2023/11/28 03:24:19;;;;;;;4.50;1.80;;;;;;;-146.27;78.96;34303.41;5105055;28;20481;-69
2023/11/28 03:26:44;;;;;;;3.33;1.88;;;;;;;-146.27;79.36;34251.81;5099166;28;20023;-68
2023/11/28 03:29:10;;;;;;;2.05;1.45;;;;;;;-146.27;79.25;34255.78;5099326;28;20073;-69
2023/11/28 03:31:35;;;;;;;4.85;1.70;;;;;;;-146.27;79.43;34251.81;5094765;28;20060;-68
2023/11/28 03:34:02;;;;;;;4.20;1.60;;;;;;;-146.27;79.49;34291.50;5104693;28;20023;-69
2023/11/28 03:36:28;;;;;;;3.25;1.98;;;;;;;-146.27;79.40;34291.50;5086457;28;20034;-68
2023/11/28 03:38:54;;;;;;;3.90;1.42;;;;;;;-146.27;79.72;34281.56;5108225;28;20498;-69
2023/11/28 03:41:19;;;;;;;2.17;1.30;;;;;;;-146.27;79.43;34295.47;5096976;28;20055;-68
2023/11/28 03:43:45;;;;;;;3.60;1.50;;;;;;;-146.27;79.50;34319.28;5107293;28;20443;-68
2023/11/28 03:46:11;;;;;;;2.90;1.65;;;;;;;-146.27;79.88;34291.50;5100016;28;20058;-68
2023/11/28 03:48:36;;;;;;;1.88;1.27;;;;;;;-146.27;79.64;34321.25;5098955;28;20020;-68
2023/11/28 03:51:02;;;;;;;3.45;1.30;;;;;;;-146.27;79.25;34321.25;5106412;28;20024;-68
2023/11/28 03:53:28;;;;;;;1.88;1.20;;;;;;;-146.27;79.18;34333.16;5113032;28;20027;-70
2023/11/28 03:55:53;;;;;;;2.40;1.48;;;;;;;-146.27;79.70;34343.09;5096609;28;20522;-68
2023/11/28 03:58:18;;;;;;;4.38;1.67;;;;;;;-146.27;79.48;34362.94;5085942;28;20036;-71
2023/11/28 04:00:43;;;;;;;2.58;1.60;;;;;;;-146.27;79.38;34335.16;5099369;28;20131;-68
2023/11/28 04:03:09;;;;;;;4.93;1.17;;;;;;;-146.27;79.99;34362.94;5106763;28;20384;-67
2023/11/28 04:05:34;;;;;;;2.08;1.10;;;;;;;-146.27;79.54;34394.69;5107046;28;20470;-69
2023/11/28 04:07:59;;;;;;;1.77;1.10;;;;;;;-146.27;79.55;34362.94;5104490;28;20480;-67
2023/11/28 04:10:25;;;;;;;2.10;1.17;;;;;;;-146.27;79.72;34390.72;5098309;28;20032;-68
2023/11/28 04:12:51;;;;;;;1.80;1.13;;;;;;;-146.27;79.76;34362.94;5090812;28;20023;-69
2023/11/28 04:15:17;;;;;;;2.28;1.45;;;;;;;-146.27;79.82;34382.78;5108466;28;20031;-69
2023/11/28 04:17:42;;;;;;;1.98;1.30;;;;;;;-146.27;79.43;34362.94;5109004;28;20375;-69
2023/11/28 04:20:09;;;;;;;1.95;1.23;;;;;;;-146.27;79.16;34370.88;5106008;28;20055;-69
2023/11/28 04:22:34;;;;;;;7.15;1.30;;;;;;;-146.27;79.42;34390.72;5092845;28;20065;-68
2023/11/28 04:24:59;;;;;;;2.05;1.08;;;;;;;-146.27;79.78;34388.75;5092620;28;20039;-68
2023/11/28 04:27:25;;;;;;;2.97;1.73;;;;;;;-146.27;80.24;34418.50;5097289;28;20058;-69
2023/11/28 04:29:50;;;;;;;1.60;1.10;;;;;;;-146.27;80.66;34382.78;5100886;28;20027;-68
2023/11/28 04:32:17;;;;;;;2.58;1.42;;;;;;;-146.27;80.12;34406.59;5103544;28;20486;-68
2023/11/28 04:34:42;;;;;;;4.38;1.75;;;;;;;-146.27;80.04;34358.97;5100435;28;20020;-68
2023/11/28 04:37:08;;;;;;;3.00;1.33;;;;;;;-146.27;80.10;34343.09;5093168;28;20092;-69
2023/11/28 04:39:33;;;;;;;1.73;1.30;;;;;;;-146.27;79.72;34374.84;5100529;28;20872;-68
2023/11/28 04:41:59;;;;;;;2.22;1.58;;;;;;;-146.27;79.85;34360.97;5101520;28;20027;-70
2023/11/28 04:44:24;;;;;;;7.65;1.63;;;;;;;-146.27;79.57;34357.00;5099772;28;20507;-68
2023/11/28 04:46:49;;;;;;;1.90;1.38;;;;;;;-146.27;79.52;34358.97;5106813;28;20073;-69
2023/11/28 04:49:15;;;;;;;2.55;1.30;;;;;;;-146.27;79.48;34299.44;5109199;28;20028;-69
2023/11/28 04:51:40;;;;;;;1.83;1.00;;;;;;;-146.27;79.58;34355.00;5097685;28;20037;-69
2023/11/28 04:54:06;;;;;;;2.42;1.17;;;;;;;-146.27;79.88;34362.94;5100914;28;20074;-69
2023/11/28 04:56:31;;;;;;;3.25;1.50;;;;;;;-146.27;79.48;34374.84;5105001;28;20136;-70
2023/11/28 04:58:57;;;;;;;3.00;1.42;;;;;;;-146.27;79.37;34386.75;5078242;28;20035;-70
2023/11/28 05:01:22;;;;;;;1.65;1.20;;;;;;;-146.27;79.83;34337.13;5100430;28;20032;-68
2023/11/28 05:03:48;;;;;;;1.48;1.17;;;;;;;-146.27;79.75;34382.78;5091405;28;20028;-69
2023/11/28 05:06:14;;;;;;;4.90;1.20;;;;;;;-146.27;80.18;34378.81;5102628;28;20055;-68
2023/11/28 05:08:39;;;;;;;2.28;1.27;;;;;;;-146.27;79.96;34378.81;5081967;28;20066;-69
2023/11/28 05:11:05;;;;;;;2.13;1.40;;;;;;;-146.27;80.04;34358.97;5102529;28;20069;-69
2023/11/28 05:13:32;;;;;;;1.98;1.38;;;;;;;-146.27;80.11;34398.66;5092431;28;20028;-69
2023/11/28 05:15:59;;;;;;;3.28;1.10;;;;;;;-146.27;79.81;34382.78;5102886;28;20032;-69
2023/11/28 05:18:24;;;;;;;2.20;1.38;;;;;;;-146.27;79.79;34390.72;5095135;28;20048;-69
2023/11/28 05:20:50;;;;;;;1.70;1.23;;;;;;;-146.27;80.09;34420.50;5093961;28;20027;-69
2023/11/28 05:23:15;;;;;;;2.45;1.30;;;;;;;-146.27;79.96;34426.44;5099269;28;20030;-69
2023/11/28 05:25:41;;;;;;;2.03;1.17;;;;;;;-146.27;80.31;34394.69;5107472;28;20077;-68
2023/11/28 05:28:06;;;;;;;2.55;1.10;;;;;;;-146.27;80.34;34414.53;5103135;28;20028;-68
2023/11/28 05:30:32;;;;;;;2.78;1.00;;;;;;;-146.27;80.40;34402.63;5095015;28;20380;-70
2023/11/28 05:32:57;;;;;;;5.10;1.20;;;;;;;-146.27;81.44;34448.28;5102004;28;20391;-70
2023/11/28 05:35:23;;;;;;;2.20;1.00;;;;;;;-146.27;82.08;34436.38;5095258;27;20085;-70
2023/11/28 05:37:48;;;;;;;1.73;1.20;;;;;;;-146.27;81.81;34442.31;5082566;28;20532;-70
2023/11/28 05:40:15;;;;;;;2.78;1.27;;;;;;;-146.27;81.94;34450.25;5102820;28;20065;-69
2023/11/28 05:42:40;;;;;;;1.23;0.75;;;;;;;-146.27;82.90;34422.47;5097937;28;20035;-71
2023/11/28 05:45:06;;;;;;;2.25;1.30;;;;;;;-146.27;82.45;34442.31;5107122;27;20023;-71
2023/11/28 05:47:31;;;;;;;2.65;1.30;;;;;;;-146.27;82.49;34422.47;5097896;28;20467;-71
2023/11/28 05:49:59;;;;;;;1.50;1.10;;;;;;;-146.27;82.54;34470.13;5099327;28;20024;-71
2023/11/28 05:52:24;;;;;;;2.35;1.40;;;;;;;-146.27;82.03;34456.22;5095810;28;20023;-71
2023/11/28 05:54:49;;;;;;;3.25;1.20;;;;;;;-146.27;82.52;34489.97;5099827;28;20037;-71
2023/11/28 05:57:15;;;;;;;4.85;1.50;;;;;;;-146.27;82.79;34480.03;5097992;28;21739;-71
2023/11/28 05:59:40;;;;;;;1.20;1.10;;;;;;;-146.27;83.30;34454.22;5098274;28;20024;-70
2023/11/28 06:02:08;;;;;;;4.32;1.35;;;;;;;-146.27;83.17;34484.00;5098905;28;20035;-70
2023/11/28 06:04:34;;;;;;;2.67;1.50;;;;;;;-146.27;83.38;34495.91;5101497;28;20551;-71
2023/11/28 06:07:00;;;;;;;3.80;1.20;;;;;;;-146.27;83.69;34505.84;5099032;28;20115;-71
2023/11/28 06:09:28;;;;;;;2.83;1.50;;;;;;;-146.27;83.43;34434.38;5101089;28;20106;-71
2023/11/28 06:11:54;;;;;;;2.53;1.45;;;;;;;-146.27;83.40;34464.16;5098483;28;20055;-71
2023/11/28 06:14:22;;;;;;;3.75;1.40;;;;;;;-146.27;83.60;34474.09;5096924;28;20101;-71
2023/11/28 06:16:48;;;;;;;3.55;1.13;;;;;;;-146.27;84.15;34468.13;5091788;28;20024;-70
2023/11/28 06:19:15;;;;;;;1.40;1.15;;;;;;;-146.27;83.86;34474.09;5078652;28;20496;-70
2023/11/28 06:21:40;;;;;;;1.58;1.25;;;;;;;-146.27;83.88;34476.06;5097802;28;20031;-71
2023/11/28 06:24:06;;;;;;;2.03;1.38;;;;;;;-146.27;84.24;34442.31;5097804;28;20068;-71
2023/11/28 06:26:32;;;;;;;1.88;1.17;;;;;;;-146.27;83.98;34493.94;5091547;28;20024;-70
2023/11/28 06:28:57;;;;;;;1.85;1.40;;;;;;;-146.27;84.03;34458.22;5094962;28;20020;-71
2023/11/28 06:31:23;;;;;;;3.13;1.67;;;;;;;-146.27;84.21;34501.88;5099059;28;20055;-71
2023/11/28 06:33:49;;;;;;;1.92;1.67;;;;;;;-146.27;84.07;34487.97;5098166;28;20484;-71
2023/11/28 06:36:14;;;;;;;3.47;1.45;;;;;;;-146.27;84.32;34499.88;5091072;28;20039;-70
2023/11/28 06:38:40;;;;;;;3.25;1.92;;;;;;;-146.27;84.21;34511.78;5101035;28;20465;-70
2023/11/28 06:41:07;;;;;;;4.18;1.75;;;;;;;-146.27;84.47;34501.88;5093399;28;20881;-70
2023/11/28 06:43:32;;;;;;;7.93;2.00;;;;;;;-146.27;84.29;34505.84;5093441;28;20024;-71
2023/11/28 06:46:00;;;;;;;4.13;1.70;;;;;;;-146.27;84.54;34511.78;5094456;28;20113;-71
2023/11/28 06:48:25;;;;;;;3.70;1.42;;;;;;;-146.27;85.47;34486.00;5095495;28;20468;-71
2023/11/28 06:50:51;;;;;;;2.92;1.83;;;;;;;-146.27;84.73;34497.91;5074353;28;20019;-70
2023/11/28 06:53:17;;;;;;;6.00;1.80;;;;;;;-146.27;84.15;34525.69;5104031;28;20036;-70
2023/11/28 06:55:42;;;;;;;3.22;1.63;;;;;;;-146.27;84.31;34517.75;5094512;28;20704;-69
2023/11/28 06:58:09;;;;;;;4.47;1.80;;;;;;;-146.27;84.20;34515.75;5101422;28;20386;-71
2023/11/28 07:00:34;;;;;;;5.40;2.45;;;;;;;-146.27;84.48;34533.63;5093628;28;20110;-70
2023/11/28 07:03:00;;;;;;;5.63;2.20;;;;;;;-146.27;84.63;34513.78;5094301;28;20536;-71
2023/11/28 07:05:25;;;;;;;2.80;1.73;;;;;;;-146.27;84.85;34509.81;5100377;28;20039;-71
2023/11/28 07:07:51;;;;;;;2.95;2.20;;;;;;;-146.27;85.10;34470.13;5098800;28;20030;-71
2023/11/28 07:10:16;;;;;;;4.25;2.38;;;;;;;-146.27;84.99;34511.78;5107842;28;20047;-71
2023/11/28 07:12:41;;;;;;;3.28;2.10;;;;;;;-146.27;85.12;34486.00;5103490;28;20031;-71
2023/11/28 07:15:07;;;;;;;3.05;1.88;;;;;;;-146.27;85.23;34533.63;5106100;28;20019;-70
2023/11/28 07:17:33;;;;;;;4.20;2.03;;;;;;;-146.27;85.07;34497.91;5098956;28;20027;-71
2023/11/28 07:19:59;;;;;;;3.47;2.13;;;;;;;-146.27;84.67;34515.75;5088490;28;20392;-72
2023/11/28 07:22:26;;;;;;;5.13;2.40;;;;;;;-146.27;84.53;34501.88;5095687;28;20028;-71
2023/11/28 07:24:51;;;;;;;4.32;2.53;;;;;;;-146.27;84.75;34509.81;5093595;28;20023;-69
2023/11/28 07:27:17;;;;;;;7.03;2.33;;;;;;;-146.27;85.13;34513.78;5089888;28;20464;-70
2023/11/28 07:29:42;;;;;;;6.43;2.40;;;;;;;-146.27;85.24;34511.78;5090184;28;20027;-69
2023/11/28 07:32:07;;;;;;;3.63;2.45;;;;;;;-146.27;85.15;34497.91;5091987;28;20058;-69
2023/11/28 07:34:34;;;;;;;4.65;2.28;;;;;;;-146.27;84.91;34493.94;5089685;28;20044;-68
2023/11/28 07:37:00;;;;;;;3.45;2.38;;;;;;;-146.27;85.15;34509.81;5096316;28;20062;-69
2023/11/28 07:39:25;;;;;;;4.55;2.05;;;;;;;-146.27;84.88;34472.09;5093566;28;20398;-69
2023/11/28 07:41:51;;;;;;;2.50;2.00;;;;;;;-146.27;85.21;34513.78;5090496;28;20439;-71
2023/11/28 07:44:16;;;;;;;3.50;2.33;;;;;;;-146.27;85.13;34529.66;5095978;28;20028;-69
2023/11/28 07:46:42;;;;;;;7.40;3.97;;;;;;;-146.27;85.30;34517.75;5096794;28;20077;-69
2023/11/28 07:49:07;;;;;;;7.05;3.40;;;;;;;-146.27;85.59;34511.78;5089784;28;20685;-70
2023/11/28 07:51:33;;;;;;;4.95;3.03;;;;;;;-146.27;85.70;34491.94;5089203;28;20526;-69
2023/11/28 07:53:58;;;;;;;9.82;2.75;;;;;;;-146.27;85.21;34493.94;5091517;28;20103;-70
2023/11/28 07:56:24;;;;;;;4.43;2.65;;;;;;;-146.27;85.26;34509.81;5093242;28;20028;-69
2023/11/28 07:58:49;;;;;;;6.00;3.50;;;;;;;-146.27;84.92;34470.13;5093388;28;20024;-70
2023/11/28 08:01:16;;;;;;;8.00;3.50;;;;;;;-146.27;85.10;34513.78;5110027;28;20055;-70
2023/11/28 08:03:41;;;;;;;6.55;3.17;;;;;;;-146.27;85.16;34533.63;5113470;28;20038;-70
2023/11/28 08:06:07;;;;;;;4.78;3.15;;;;;;;-146.27;85.13;34495.91;5087195;28;20471;-71
2023/11/28 08:08:33;;;;;;;8.32;3.28;;;;;;;-146.27;86.50;34454.22;5104798;28;20420;-70
2023/11/28 08:10:59;;;;;;;8.48;3.38;;;;;;;-146.27;85.48;34507.81;5093197;28;20035;-69
2023/11/28 08:13:24;;;;;;;9.35;3.53;;;;;;;-146.27;85.74;34482.03;5075851;28;20118;-69
2023/11/28 08:15:50;;;;;;;4.47;3.10;;;;;;;-146.27;85.85;34474.09;5093240;28;20157;-69
2023/11/28 08:18:15;;;;;;;5.22;2.60;;;;;;;-146.27;85.74;34493.94;5093403;28;20484;-70
2023/11/28 08:20:41;;;;;;;5.47;3.55;;;;;;;-146.27;85.43;34458.22;5092782;28;20083;-70
2023/11/28 08:23:06;;;;;;;8.63;3.85;;;;;;;-146.27;85.52;34486.00;5092669;28;20028;-70
2023/11/28 08:25:32;;;;;;;4.68;3.10;;;;;;;-146.27;85.27;34470.13;5092661;28;20050;-71
2023/11/28 08:27:57;;;;;;;4.03;2.92;;;;;;;-146.27;85.97;34470.13;5074550;28;20028;-69
2023/11/28 08:30:23;;;;;;;7.25;3.53;;;;;;;-146.27;85.91;34474.09;5096576;28;20115;-69
2023/11/28 08:32:48;;;;;;;5.03;3.25;;;;;;;-146.27;85.70;34487.97;5094020;28;20056;-70
2023/11/28 08:35:14;;;;;;;4.93;3.42;;;;;;;-146.27;85.81;34430.41;5092727;28;20031;-69
2023/11/28 08:37:39;;;;;;;7.35;3.28;;;;;;;-146.27;86.22;34422.47;5091898;28;20073;-69
2023/11/28 08:40:06;;;;;;;7.18;3.65;;;;;;;-146.27;86.17;34432.41;5092140;28;20095;-70
2023/11/28 08:42:32;;;;;;;5.22;3.40;;;;;;;-146.27;85.95;34446.28;5092441;28;20020;-70
2023/11/28 08:44:58;;;;;;;9.98;3.75;;;;;;;-146.27;85.97;34420.50;5092386;28;20427;-70
2023/11/28 08:47:23;;;;;;;4.38;3.10;;;;;;;-146.27;86.37;34406.59;5092472;28;20050;-70
2023/11/28 08:49:49;;;;;;;10.25;3.97;;;;;;;-146.27;86.29;34432.41;5091993;28;20028;-69
2023/11/28 08:52:14;;;;;;;6.18;4.00;;;;;;;-146.27;85.94;34380.81;5096968;28;20091;-71
2023/11/28 08:54:44;;;;;;;5.43;3.50;;;;;;;-146.27;86.61;34358.97;5082456;28;20031;-70
2023/11/28 08:57:10;;;;;;;6.40;3.50;;;;;;;-146.27;86.19;34289.50;5112947;28;20016;-70
2023/11/28 08:59:37;;;;;;;7.07;3.60;;;;;;;-146.27;85.90;34386.75;5112469;28;20020;-70
2023/11/28 09:02:02;;;;;;;5.20;3.92;;;;;;;-146.27;85.72;34357.00;5110869;28;20035;-69
2023/11/28 09:04:27;;;;;;;9.52;3.55;;;;;;;-146.27;85.88;34343.09;5095752;28;20443;-70
2023/11/28 09:06:53;;;;;;;7.97;3.70;;;;;;;-146.27;85.68;34343.09;5106569;28;20111;-69
2023/11/28 09:09:18;;;;;;;4.80;3.60;;;;;;;-146.27;85.84;34370.88;5073844;28;20032;-70
2023/11/28 09:11:44;;;;;;;10.40;4.35;;;;;;;-146.27;85.51;34299.44;5091847;28;20502;-69
2023/11/28 09:14:09;;;;;;;5.20;3.60;;;;;;;-146.27;85.38;34315.31;5092373;28;20055;-70
2023/11/28 09:16:35;;;;;;;5.47;3.50;;;;;;;-146.27;84.99;34319.28;5092471;28;20020;-69
2023/11/28 09:19:00;;;;;;;10.60;5.32;;;;;;;-146.27;85.07;34273.63;5101080;28;20355;-68
2023/11/28 09:21:26;;;;;;;11.32;4.13;;;;;;;-146.27;84.94;34273.63;5094473;28;20023;-71
2023/11/28 09:23:51;;;;;;;11.60;4.45;;;;;;;-146.27;84.21;34243.88;5093093;28;20028;-68
2023/11/28 09:26:16;;;;;;;7.75;4.05;;;;;;;-146.27;84.50;34251.81;5097934;28;20467;-69
2023/11/28 09:28:43;;;;;;;7.95;4.50;;;;;;;-146.27;83.53;34263.72;5091885;28;20105;-68
2023/11/28 09:31:08;;;;;;;7.07;4.05;;;;;;;-146.27;82.79;34182.34;5094532;28;20027;-70
2023/11/28 09:33:35;;;;;;;6.88;4.00;;;;;;;-146.27;81.76;34214.09;5076597;28;20039;-69
2023/11/28 09:36:00;;;;;;;5.10;3.47;;;;;;;-146.27;81.28;34156.53;5106949;28;20502;-70
2023/11/28 09:38:27;;;;;;;7.55;3.60;;;;;;;-146.27;80.92;34128.75;5094476;28;20028;-70
2023/11/28 09:40:53;;;;;;;5.63;3.60;;;;;;;-146.27;80.40;34097.00;5096603;28;20038;-70
2023/11/28 09:43:26;;;;;;;4.45;3.63;;;;;;;-146.27;79.62;34097.00;5098026;28;20027;-70
2023/11/28 09:45:56;;;;;;;5.47;3.30;;;;;;;-146.27;77.50;34166.47;5098929;28;20030;-69
2023/11/28 09:48:21;;;;;;;5.43;2.63;;;;;;;-146.27;76.98;34087.09;5105299;28;20024;-69
2023/11/28 09:50:50;;;;;;;6.43;3.72;;;;;;;-146.27;75.96;34045.41;5096373;28;20035;-69
2023/11/28 09:53:18;;;;;;;5.72;2.70;;;;;;;-146.27;75.65;34045.41;5098846;28;20043;-69
2023/11/28 09:55:44;;;;;;;4.28;2.65;;;;;;;-146.27;75.81;33973.97;5091738;28;20028;-70
2023/11/28 09:58:12;;;;;;;3.40;2.25;;;;;;;-146.27;75.45;33930.31;5090991;28;20360;-68
2023/11/28 10:00:38;;;;;;;4.80;2.55;;;;;;;-146.27;73.23;33793.38;5093112;28;20024;-69
2023/11/28 10:03:03;;;;;;;6.90;2.67;;;;;;;-146.27;73.20;33850.94;5091763;28;20434;-69
2023/11/28 10:05:29;;;;;;;5.65;2.65;;;;;;;-146.27;71.66;33803.31;5091085;28;20090;-70
2023/11/28 10:07:56;;;;;;;8.10;2.40;;;;;;;-146.27;70.73;33739.81;5090870;28;20047;-69
2023/11/28 10:10:23;;;;;;;4.70;2.80;;;;;;;-146.27;68.83;33594.97;5090723;28;20032;-69
2023/11/28 10:12:50;;;;;;;7.00;2.42;;;;;;;-146.27;67.17;33632.66;5089829;28;20059;-70
2023/11/28 10:15:17;;;;;;;5.22;1.80;;;;;;;-146.27;66.33;33557.25;5094405;28;20019;-70
2023/11/28 10:17:43;;;;;;;4.85;2.65;;;;;;;-146.27;65.77;33507.66;5106469;28;20467;-70
2023/11/28 10:20:10;;;;;;;2.90;2.35;;;;;;;-146.27;66.58;33378.69;5084315;28;20073;-69
2023/11/28 10:22:37;;;;;;;4.20;1.88;;;;;;;-146.27;62.65;33339.00;5090738;28;20027;-69
2023/11/28 10:25:09;;;;;;;3.55;1.92;;;;;;;-146.27;59.81;33303.28;5090301;28;20031;-70
2023/11/28 10:27:41;;;;;;;5.22;2.00;;;;;;;-146.27;57.34;33311.22;5081655;28;20492;-71
2023/11/28 10:30:11;;;;;;;5.22;2.35;;;;;;;-146.27;57.59;33247.72;5074836;28;20086;-71
2023/11/28 10:32:37;;;;;;;3.40;1.73;;;;;;;-146.27;57.07;33124.72;5077707;28;20373;-70
2023/11/28 10:35:05;;;;;;;4.45;1.92;;;;;;;-146.27;53.43;33049.31;5090254;28;20047;-70
2023/11/28 10:37:34;;;;;;;4.38;2.10;;;;;;;-146.27;52.05;33085.03;5089451;28;20016;-71
2023/11/28 10:40:06;;;;;;;4.40;1.90;;;;;;;-146.27;52.95;33092.97;5088558;28;20038;-70
2023/11/28 10:42:32;;;;;;;3.03;1.88;;;;;;;-146.27;55.17;32954.09;5090214;28;20027;-69
2023/11/28 10:44:59;;;;;;;8.18;2.95;;;;;;;-146.27;51.21;32833.06;5088342;28;20669;-70
2023/11/28 10:47:29;;;;;;;3.90;1.95;;;;;;;-146.27;49.90;32966.00;5091922;28;20484;-70
2023/11/28 10:49:55;;;;;;;5.97;2.00;;;;;;;-146.27;54.50;32858.88;5096743;28;20310;-70
2023/11/28 10:52:25;;;;;;;3.70;2.08;;;;;;;-146.27;50.33;32817.19;5085462;28;20032;-69
2023/11/28 10:54:56;;;;;;;4.60;1.88;;;;;;;-146.27;49.43;32767.59;5084111;28;20059;-69
2023/11/28 10:57:29;;;;;;;4.82;2.92;;;;;;;-146.27;48.25;32846.97;5110180;28;20023;-71
2023/11/28 11:00:09;;;;;;;2.85;2.00;;;;;;;-146.27;48.98;32912.44;5099478;28;20620;-70
2023/11/28 11:02:35;;;;;;;4.57;2.30;;;;;;;-146.27;50.66;32779.50;5078340;28;20499;-70
2023/11/28 11:05:06;;;;;;;4.30;1.95;;;;;;;-146.27;48.20;32918.38;5114496;28;20027;-70
2023/11/28 11:07:35;;;;;;;4.47;1.95;;;;;;;-146.27;47.77;32997.75;5086269;28;20027;-71
2023/11/28 11:10:03;;;;;;;6.05;2.10;;;;;;;-146.27;50.40;33049.31;5092989;28;20024;-72
2023/11/28 11:12:32;;;;;;;3.45;2.13;;;;;;;-146.27;54.26;32960.03;5100608;28;20479;-70